Terminal Aerodrome Forecast
Issued by NWS

Home | Current Version | Previous Version | Text Only | Print | Product List | Glossary On
Versions: 1 2 3 4 5 6 7 8 9 10 11 12
000
FTUS42 TJSJ 312339
TAFKPK
TAF
TKPK 312339Z 0100/0124 06011KT P6SM VCSH FEW018 SCT035
     FM010200 05007KT P6SM VCTS SCT018CB SCT030
      TEMPO 0103/0107 VRB12KT 4SM -TSRA BKN018CB BKN040
     FM011230 07010KT P6SM -RA SCT020 BKN050 BKN120
     FM011700 08012KT P6SM FEW022 SCT030 SCT120
      AMD NOT SKED 0102/0111=

USA.gov is the U.S. government's official web portal to all federal, state and local government web resources and services.